createdAt,value
2023-01-25T00:02:47.665Z,-0.19
2023-01-25T00:06:10.250Z,-0.17
2023-01-25T00:09:32.382Z,-0.22
2023-01-25T00:12:56.739Z,-0.18
2023-01-25T00:16:18.634Z,-0.17
2023-01-25T00:19:40.549Z,-0.22
2023-01-25T00:23:02.062Z,-0.21
2023-01-25T00:26:24.215Z,-0.19
2023-01-25T00:29:47.537Z,-0.17
2023-01-25T00:33:34.866Z,-0.18
2023-01-25T00:37:00.402Z,-0.18
2023-01-25T00:40:21.743Z,-0.16
2023-01-25T00:43:44.485Z,-0.14
2023-01-25T00:47:07.116Z,-0.15
2023-01-25T00:50:28.957Z,-0.12
2023-01-25T00:53:52.837Z,-0.24
2023-01-25T00:57:14.536Z,-0.13
2023-01-25T01:00:36.367Z,-0.12
2023-01-25T01:03:58.438Z,-0.12
2023-01-25T01:07:20.321Z,-0.11
2023-01-25T01:10:44.397Z,-0.10
2023-01-25T01:14:06.680Z,-0.13
2023-01-25T01:17:28.745Z,-0.15
2023-01-25T01:20:51.217Z,-0.13
2023-01-25T01:24:13.269Z,-0.15
2023-01-25T01:27:36.476Z,-0.15
2023-01-25T01:31:02.413Z,-0.27
2023-01-25T01:34:24.866Z,-0.15
2023-01-25T01:37:46.899Z,-0.13
2023-01-25T01:41:09.647Z,-0.14
2023-01-25T01:44:51.309Z,-0.12
2023-01-25T01:48:18.042Z,-0.13
2023-01-25T01:51:49.021Z,-0.14
2023-01-25T01:55:18.396Z,-0.14
2023-01-25T01:58:41.125Z,-0.14
2023-01-25T02:02:05.099Z,-0.13
2023-01-25T02:05:33.196Z,-0.18
2023-01-25T02:08:56.023Z,-0.12
2023-01-25T02:12:19.593Z,-0.15
2023-01-25T02:15:46.128Z,-0.12
2023-01-25T02:19:12.697Z,-0.12
2023-01-25T02:22:43.260Z,-0.11
2023-01-25T02:26:08.352Z,-0.09
2023-01-25T02:29:31.241Z,-0.08
2023-01-25T02:32:53.428Z,-0.07
2023-01-25T02:36:22.412Z,-0.07
2023-01-25T02:39:44.726Z,-0.07
2023-01-25T02:43:07.998Z,-0.05
2023-01-25T02:46:32.828Z,-0.05
2023-01-25T02:49:54.720Z,-0.08
2023-01-25T02:53:16.797Z,-0.09
2023-01-25T02:56:40.845Z,-0.07
2023-01-25T03:00:05.185Z,-0.06
2023-01-25T03:03:27.662Z,-0.07
2023-01-25T03:06:50.621Z,-0.07
2023-01-25T03:10:13.153Z,-0.14
2023-01-25T03:13:36.211Z,-0.06
2023-01-25T03:16:59.674Z,-0.04
2023-01-25T03:20:21.684Z,-0.03
2023-01-25T03:23:45.072Z,-0.03
2023-01-25T03:27:14.371Z,-0.04
2023-01-25T03:30:36.089Z,-0.03
2023-01-25T03:33:59.325Z,-0.07
2023-01-25T03:37:21.397Z,-0.02
2023-01-25T03:40:43.174Z,0.00
2023-01-25T03:44:06.611Z,-0.02
2023-01-25T03:47:28.464Z,0.01
2023-01-25T03:50:52.848Z,0.02
2023-01-25T03:54:15.013Z,0.01
2023-01-25T03:57:36.820Z,0.04
2023-01-25T04:01:01.383Z,-0.01
2023-01-25T04:04:23.432Z,0.04
2023-01-25T04:07:46.810Z,0.04
2023-01-25T04:11:10.814Z,0.05
2023-01-25T04:14:43.964Z,0.04
2023-01-25T04:18:07.143Z,0.02
2023-01-25T04:21:29.184Z,0.05
2023-01-25T04:24:52.664Z,0.05
2023-01-25T04:28:15.112Z,0.06
2023-01-25T04:31:37.274Z,0.09
2023-01-25T04:34:59.165Z,0.11
2023-01-25T04:38:21.115Z,0.11
2023-01-25T04:41:44.900Z,0.14
2023-01-25T04:45:08.496Z,0.13
2023-01-25T04:48:30.870Z,0.16
2023-01-25T04:51:52.903Z,0.15
2023-01-25T04:55:14.933Z,0.14
2023-01-25T04:58:38.107Z,0.15
2023-01-25T05:01:59.817Z,0.13
2023-01-25T05:05:22.132Z,0.16
2023-01-25T05:08:44.128Z,0.18
2023-01-25T05:12:11.829Z,0.19
2023-01-25T05:15:35.447Z,0.19
2023-01-25T05:18:57.754Z,0.19
2023-01-25T05:22:21.166Z,0.19
2023-01-25T05:26:01.523Z,0.19
2023-01-25T05:29:23.723Z,0.20
2023-01-25T05:32:47.355Z,0.21
2023-01-25T05:36:09.748Z,0.22
2023-01-25T05:39:32.115Z,0.20
2023-01-25T05:42:57.688Z,0.21
2023-01-25T05:46:19.792Z,0.21
2023-01-25T05:49:42.992Z,0.22
2023-01-25T05:53:04.902Z,0.22
2023-01-25T05:56:26.849Z,0.17
2023-01-25T05:59:48.923Z,0.21
2023-01-25T06:03:11.106Z,0.22
2023-01-25T06:06:34.412Z,0.23
2023-01-25T06:09:56.541Z,0.22
2023-01-25T06:13:18.989Z,0.17
2023-01-25T06:16:40.952Z,0.26
2023-01-25T06:20:02.897Z,0.26
2023-01-25T06:23:26.300Z,0.24
2023-01-25T06:26:48.342Z,0.24
2023-01-25T06:30:11.974Z,0.22
2023-01-25T06:33:34.103Z,0.21
2023-01-25T06:36:55.602Z,0.27
2023-01-25T06:40:19.300Z,0.28
2023-01-25T06:43:41.485Z,0.28
2023-01-25T06:47:03.484Z,0.28
2023-01-25T06:50:25.359Z,0.28
2023-01-25T06:53:48.073Z,0.30
2023-01-25T06:57:12.238Z,0.28
2023-01-25T07:00:34.204Z,0.28
2023-01-25T07:03:58.000Z,0.30
2023-01-25T07:07:20.201Z,0.30
2023-01-25T07:10:41.966Z,0.32
2023-01-25T07:14:06.545Z,0.35
2023-01-25T07:17:28.505Z,0.37
2023-01-25T07:20:52.106Z,0.37
2023-01-25T07:24:16.699Z,0.41
2023-01-25T07:27:38.624Z,0.42
2023-01-25T07:31:07.539Z,0.43
2023-01-25T07:34:29.530Z,0.45
2023-01-25T07:37:51.677Z,0.46
2023-01-25T07:41:13.573Z,0.47
2023-01-25T07:44:35.525Z,0.45
2023-01-25T07:48:00.256Z,0.46
2023-01-25T07:51:23.999Z,0.45
2023-01-25T07:54:48.333Z,0.46
2023-01-25T07:58:12.539Z,0.40
2023-01-25T08:01:36.704Z,0.46
2023-01-25T08:05:00.047Z,0.49
2023-01-25T08:08:22.108Z,0.49
2023-01-25T08:11:44.446Z,0.49
2023-01-25T08:15:07.337Z,0.51
2023-01-25T08:18:29.477Z,0.52
2023-01-25T08:21:52.963Z,0.53
2023-01-25T08:25:14.827Z,0.55
2023-01-25T08:28:36.986Z,0.55
2023-01-25T08:31:59.345Z,0.56
2023-01-25T08:35:20.949Z,0.60
2023-01-25T08:38:44.137Z,0.62
2023-01-25T08:42:06.799Z,0.63
2023-01-25T08:45:28.589Z,0.63
2023-01-25T08:48:50.361Z,0.62
2023-01-25T08:52:15.001Z,0.62
2023-01-25T08:55:38.732Z,0.60
2023-01-25T08:59:00.742Z,0.59
2023-01-25T09:02:22.677Z,0.60
2023-01-25T09:05:44.588Z,0.60
2023-01-25T09:09:08.033Z,0.62
2023-01-25T09:12:31.629Z,0.63
2023-01-25T09:15:53.605Z,0.63
2023-01-25T09:19:15.882Z,0.66
2023-01-25T09:22:37.870Z,0.69
2023-01-25T09:25:59.890Z,0.71
2023-01-25T09:29:23.089Z,0.70
2023-01-25T09:32:45.307Z,0.72
2023-01-25T09:36:07.942Z,0.78
2023-01-25T09:39:29.982Z,0.79
2023-01-25T09:43:01.335Z,0.81
2023-01-25T09:46:31.478Z,0.79
2023-01-25T09:50:13.397Z,0.86
2023-01-25T09:53:36.787Z,0.88
2023-01-25T09:57:00.098Z,0.88
2023-01-25T10:00:29.357Z,0.88
2023-01-25T10:03:56.822Z,0.88
2023-01-25T10:07:23.675Z,0.84
2023-01-25T10:10:48.972Z,0.94
2023-01-25T10:14:16.380Z,0.95
2023-01-25T10:17:41.648Z,0.94
2023-01-25T10:21:09.397Z,0.96
2023-01-25T10:25:02.539Z,0.96
2023-01-25T10:28:39.003Z,0.99
2023-01-25T10:32:13.747Z,0.95
2023-01-25T10:35:43.751Z,1.02
2023-01-25T10:39:08.123Z,1.04
2023-01-25T10:42:38.190Z,1.03
2023-01-25T10:45:59.928Z,1.03
2023-01-25T10:49:26.428Z,1.08
2023-01-25T10:52:59.169Z,1.08
2023-01-25T10:56:27.697Z,1.11
2023-01-25T10:59:52.224Z,1.09
2023-01-25T11:03:22.083Z,1.08
2023-01-25T11:06:50.517Z,1.09
2023-01-25T11:10:30.285Z,1.07
2023-01-25T11:13:55.772Z,1.06
2023-01-25T11:17:27.525Z,1.11
2023-01-25T11:21:04.343Z,1.19
2023-01-25T11:24:29.288Z,1.24
2023-01-25T11:27:51.066Z,1.25
2023-01-25T11:31:16.678Z,1.26
2023-01-25T11:34:38.683Z,1.27
2023-01-25T11:38:12.199Z,1.23
2023-01-25T11:41:47.063Z,1.31
2023-01-25T11:45:45.559Z,1.29
2023-01-25T11:49:20.303Z,1.27
2023-01-25T11:53:01.559Z,1.26
2023-01-25T11:56:36.458Z,1.31
2023-01-25T12:00:24.686Z,1.27
2023-01-25T12:04:25.852Z,1.25
2023-01-25T12:07:59.736Z,1.27
2023-01-25T12:11:42.036Z,1.28
2023-01-25T12:15:22.284Z,1.26
2023-01-25T12:19:14.121Z,1.20
2023-01-25T12:22:47.316Z,1.19
2023-01-25T12:26:20.532Z,1.21
2023-01-25T12:29:46.311Z,1.22
2023-01-25T12:33:14.983Z,1.22
2023-01-25T12:36:41.837Z,1.24
2023-01-25T12:40:08.672Z,1.23
2023-01-25T12:43:38.280Z,1.20
2023-01-25T12:47:08.916Z,1.24
2023-01-25T12:50:35.351Z,1.13
2023-01-25T12:53:58.934Z,1.24
2023-01-25T12:57:27.176Z,1.26
2023-01-25T13:00:57.673Z,1.27
2023-01-25T13:04:38.395Z,1.29
2023-01-25T13:08:10.031Z,1.31
2023-01-25T13:11:36.756Z,1.34
2023-01-25T13:14:58.485Z,1.33
2023-01-25T13:18:41.023Z,1.33
2023-01-25T13:22:03.137Z,1.37
2023-01-25T13:25:25.990Z,1.30
2023-01-25T13:28:49.865Z,1.38
2023-01-25T13:32:14.437Z,1.37
2023-01-25T13:35:45.732Z,1.36
2023-01-25T13:39:42.946Z,1.42
2023-01-25T13:43:07.523Z,1.41
2023-01-25T13:46:29.347Z,1.40
2023-01-25T13:49:56.987Z,1.40
2023-01-25T13:53:23.260Z,1.37
2023-01-25T13:56:45.828Z,1.37
2023-01-25T14:00:16.407Z,1.38
2023-01-25T14:03:44.106Z,1.38
2023-01-25T14:07:10.211Z,1.37
2023-01-25T14:10:33.833Z,1.38
2023-01-25T14:14:00.671Z,1.38
2023-01-25T14:17:24.751Z,1.37
2023-01-25T14:20:48.589Z,1.32
2023-01-25T14:24:11.710Z,1.34
2023-01-25T14:27:36.179Z,1.30
2023-01-25T14:31:01.425Z,1.30
2023-01-25T14:34:23.539Z,1.33
2023-01-25T14:37:45.313Z,1.35
2023-01-25T14:41:14.573Z,1.33
2023-01-25T14:44:38.224Z,1.34
2023-01-25T14:48:00.284Z,1.31
2023-01-25T14:51:28.071Z,1.22
2023-01-25T14:54:53.846Z,1.29
2023-01-25T14:58:20.054Z,1.30
2023-01-25T15:01:43.566Z,1.30
2023-01-25T15:05:15.477Z,1.27
2023-01-25T15:08:40.976Z,1.28
2023-01-25T15:12:04.908Z,1.24
2023-01-25T15:15:29.227Z,1.25
2023-01-25T15:18:54.358Z,1.23
2023-01-25T15:22:16.494Z,1.26
2023-01-25T15:25:50.170Z,1.28
2023-01-25T15:29:15.515Z,1.25
2023-01-25T15:32:37.511Z,1.27
2023-01-25T15:36:00.757Z,1.28
2023-01-25T15:39:23.414Z,1.27
2023-01-25T15:42:45.510Z,1.20
2023-01-25T15:46:13.305Z,1.22
2023-01-25T15:49:37.137Z,1.23
2023-01-25T15:53:00.427Z,1.23
2023-01-25T15:56:27.453Z,1.23
2023-01-25T15:59:49.224Z,1.22
2023-01-25T16:03:11.028Z,1.21
2023-01-25T16:06:42.123Z,1.13
2023-01-25T16:10:05.797Z,1.23
2023-01-25T16:13:27.331Z,1.21
2023-01-25T16:16:51.913Z,1.22
2023-01-25T16:20:19.962Z,1.19
2023-01-25T16:23:42.732Z,1.22
2023-01-25T16:27:06.109Z,1.23
2023-01-25T16:30:34.251Z,1.21
2023-01-25T16:33:55.904Z,1.20
2023-01-25T16:37:18.857Z,1.20
2023-01-25T16:40:40.665Z,1.17
2023-01-25T16:44:03.623Z,1.19
2023-01-25T16:47:27.765Z,1.17
2023-01-25T16:50:51.433Z,1.17
2023-01-25T16:54:13.607Z,1.19
2023-01-25T16:57:35.571Z,1.14
2023-01-25T17:00:58.848Z,1.16
2023-01-25T17:04:21.203Z,1.15
2023-01-25T17:07:43.921Z,1.16
2023-01-25T17:11:07.255Z,1.17
2023-01-25T17:14:29.212Z,1.12
2023-01-25T17:17:52.509Z,1.02
2023-01-25T17:21:16.932Z,1.15
2023-01-25T17:24:38.949Z,1.16
2023-01-25T17:28:00.869Z,1.17
2023-01-25T17:31:26.388Z,1.14
2023-01-25T17:34:50.402Z,1.10
2023-01-25T17:38:12.600Z,0.97
2023-01-25T17:41:34.812Z,1.13
2023-01-25T17:44:56.727Z,1.12
2023-01-25T17:48:18.867Z,1.11
2023-01-25T17:51:42.185Z,1.11
2023-01-25T17:55:05.273Z,1.10
2023-01-25T17:58:27.032Z,1.09
2023-01-25T18:01:49.338Z,1.07
2023-01-25T18:05:11.579Z,1.11
2023-01-25T18:08:35.165Z,1.09
2023-01-25T18:11:56.780Z,1.09
2023-01-25T18:15:21.057Z,1.10
2023-01-25T18:18:44.421Z,1.12
2023-01-25T18:22:06.294Z,1.13
2023-01-25T18:25:37.322Z,1.07
2023-01-25T18:29:00.928Z,1.14
2023-01-25T18:32:23.383Z,1.11
2023-01-25T18:35:47.995Z,1.14
2023-01-25T18:39:10.351Z,1.13
2023-01-25T18:42:33.656Z,1.12
2023-01-25T18:45:57.389Z,1.08
2023-01-25T18:49:19.580Z,1.09
2023-01-25T18:52:41.804Z,1.10
2023-01-25T18:56:06.172Z,1.10
2023-01-25T18:59:29.669Z,1.12
2023-01-25T19:02:52.099Z,1.11
2023-01-25T19:06:14.542Z,1.11
2023-01-25T19:09:36.597Z,1.05
2023-01-25T19:12:58.611Z,1.12
2023-01-25T19:16:24.598Z,1.12
2023-01-25T19:19:46.424Z,1.11
2023-01-25T19:23:08.591Z,1.11
2023-01-25T19:26:30.434Z,1.10
2023-01-25T19:29:53.053Z,1.10
2023-01-25T19:33:16.659Z,1.11
2023-01-25T19:36:43.795Z,1.15
2023-01-25T19:40:06.461Z,1.01
2023-01-25T19:43:28.400Z,1.13
2023-01-25T19:46:50.227Z,1.16
2023-01-25T19:50:14.009Z,1.12
2023-01-25T19:53:35.876Z,1.14
2023-01-25T19:56:58.615Z,1.15
2023-01-25T20:00:20.906Z,1.14
2023-01-25T20:03:43.386Z,1.13
2023-01-25T20:07:06.860Z,1.14
2023-01-25T20:10:28.922Z,1.16
2023-01-25T20:13:52.628Z,1.16
2023-01-25T20:17:14.760Z,1.14
2023-01-25T20:20:36.703Z,1.14
2023-01-25T20:24:04.431Z,1.07
2023-01-25T20:27:26.206Z,1.14
2023-01-25T20:30:48.431Z,1.13
2023-01-25T20:34:13.448Z,1.13
2023-01-25T20:37:35.643Z,1.11
2023-01-25T20:41:02.135Z,1.11
2023-01-25T20:44:24.218Z,1.09
2023-01-25T20:47:46.362Z,1.10
2023-01-25T20:51:13.235Z,1.11
2023-01-25T20:54:35.128Z,1.08
2023-01-25T20:57:58.289Z,1.09
2023-01-25T21:01:23.039Z,1.02
2023-01-25T21:04:44.929Z,1.10
2023-01-25T21:08:06.832Z,1.03
2023-01-25T21:11:28.782Z,1.10
2023-01-25T21:14:52.077Z,1.09
2023-01-25T21:18:16.644Z,1.11
2023-01-25T21:21:38.700Z,1.05
2023-01-25T21:25:00.699Z,1.11
2023-01-25T21:28:22.526Z,1.09
2023-01-25T21:31:49.183Z,1.07
2023-01-25T21:35:12.235Z,1.09
2023-01-25T21:38:35.128Z,1.12
2023-01-25T21:41:57.484Z,1.11
2023-01-25T21:45:37.142Z,1.11
2023-01-25T21:49:20.193Z,1.11
2023-01-25T21:52:42.282Z,1.08
2023-01-25T21:56:04.028Z,1.10
2023-01-25T21:59:25.982Z,1.10
2023-01-25T22:02:48.118Z,1.11
2023-01-25T22:06:11.427Z,1.11
2023-01-25T22:09:34.861Z,1.11
2023-01-25T22:12:56.827Z,1.12
2023-01-25T22:16:18.919Z,1.08
2023-01-25T22:19:40.557Z,1.12
2023-01-25T22:23:03.964Z,1.05
2023-01-25T22:26:27.087Z,1.12
2023-01-25T22:29:49.188Z,1.11
2023-01-25T22:33:11.023Z,1.12
2023-01-25T22:36:33.210Z,1.12
2023-01-25T22:39:58.616Z,1.11
2023-01-25T22:43:20.720Z,1.12
2023-01-25T22:46:42.553Z,1.11
2023-01-25T22:50:04.861Z,1.12
2023-01-25T22:53:26.774Z,1.11
2023-01-25T22:56:50.121Z,1.10
2023-01-25T23:00:13.751Z,1.04
2023-01-25T23:03:35.736Z,1.06
2023-01-25T23:07:03.002Z,1.06
2023-01-25T23:10:25.293Z,1.06
2023-01-25T23:14:09.016Z,1.02
2023-01-25T23:17:47.826Z,1.04
2023-01-25T23:21:09.840Z,1.04
2023-01-25T23:24:31.883Z,1.03
2023-01-25T23:27:53.508Z,1.01
2023-01-25T23:31:22.092Z,1.00
2023-01-25T23:34:44.927Z,1.00
2023-01-25T23:38:16.525Z,0.99
2023-01-25T23:41:38.443Z,0.98
2023-01-25T23:45:00.453Z,1.00
2023-01-25T23:48:24.056Z,0.99
2023-01-25T23:51:46.287Z,0.98
2023-01-25T23:55:09.115Z,0.95
2023-01-25T23:58:31.368Z,0.98
